sensor_id;sensor_type;location;lat;lon;timestamp;temperature;humidity
10431;DHT22;5262;59.958;17.726;2023-02-13T00:00:36;-0.30;99.90
10431;DHT22;5262;59.958;17.726;2023-02-13T00:03:03;-0.30;99.90
10431;DHT22;5262;59.958;17.726;2023-02-13T00:05:29;-0.20;99.90
10431;DHT22;5262;59.958;17.726;2023-02-13T00:07:55;-0.10;99.90
10431;DHT22;5262;59.958;17.726;2023-02-13T00:10:20;-0.20;99.90
10431;DHT22;5262;59.958;17.726;2023-02-13T00:12:46;-0.10;99.90
10431;DHT22;5262;59.958;17.726;2023-02-13T00:15:12;-0.10;99.90
10431;DHT22;5262;59.958;17.726;2023-02-13T00:17:37;-0.20;99.90
10431;DHT22;5262;59.958;17.726;2023-02-13T00:20:04;-0.10;99.90
10431;DHT22;5262;59.958;17.726;2023-02-13T00:22:30;-0.20;99.90
10431;DHT22;5262;59.958;17.726;2023-02-13T00:24:59;-0.30;99.90
10431;DHT22;5262;59.958;17.726;2023-02-13T00:27:24;-0.20;99.90
10431;DHT22;5262;59.958;17.726;2023-02-13T00:29:50;-0.20;99.90
10431;DHT22;5262;59.958;17.726;2023-02-13T00:32:15;-0.30;99.90
10431;DHT22;5262;59.958;17.726;2023-02-13T00:34:41;-0.40;99.90
10431;DHT22;5262;59.958;17.726;2023-02-13T00:37:08;-0.30;99.90
10431;DHT22;5262;59.958;17.726;2023-02-13T00:39:34;-0.30;99.90
10431;DHT22;5262;59.958;17.726;2023-02-13T00:42:00;-0.30;99.90
10431;DHT22;5262;59.958;17.726;2023-02-13T00:44:25;-0.40;99.90
10431;DHT22;5262;59.958;17.726;2023-02-13T00:46:51;-0.30;99.90
10431;DHT22;5262;59.958;17.726;2023-02-13T00:49:16;-0.30;99.90
10431;DHT22;5262;59.958;17.726;2023-02-13T00:51:42;-0.20;99.90
10431;DHT22;5262;59.958;17.726;2023-02-13T00:54:08;-0.20;99.90
10431;DHT22;5262;59.958;17.726;2023-02-13T00:56:33;-0.20;99.90
10431;DHT22;5262;59.958;17.726;2023-02-13T00:58:59;-0.30;99.90
10431;DHT22;5262;59.958;17.726;2023-02-13T01:01:25;-0.30;99.90
10431;DHT22;5262;59.958;17.726;2023-02-13T01:03:50;-0.30;99.90
10431;DHT22;5262;59.958;17.726;2023-02-13T01:06:16;-0.30;99.90
10431;DHT22;5262;59.958;17.726;2023-02-13T01:08:41;-0.40;99.90
10431;DHT22;5262;59.958;17.726;2023-02-13T01:11:07;-0.40;99.90
10431;DHT22;5262;59.958;17.726;2023-02-13T01:13:33;-0.40;99.90
10431;DHT22;5262;59.958;17.726;2023-02-13T01:15:58;-0.40;99.90
10431;DHT22;5262;59.958;17.726;2023-02-13T01:18:24;-0.50;99.90
10431;DHT22;5262;59.958;17.726;2023-02-13T01:20:58;-0.60;99.90
10431;DHT22;5262;59.958;17.726;2023-02-13T01:23:24;-0.70;99.90
10431;DHT22;5262;59.958;17.726;2023-02-13T01:25:50;-0.80;99.90
10431;DHT22;5262;59.958;17.726;2023-02-13T01:28:16;-0.80;99.90
10431;DHT22;5262;59.958;17.726;2023-02-13T01:30:42;-0.70;99.90
10431;DHT22;5262;59.958;17.726;2023-02-13T01:33:10;-0.80;99.90
10431;DHT22;5262;59.958;17.726;2023-02-13T01:35:39;-0.80;99.90
10431;DHT22;5262;59.958;17.726;2023-02-13T01:38:04;-0.80;99.90
10431;DHT22;5262;59.958;17.726;2023-02-13T01:40:30;-0.70;99.90
10431;DHT22;5262;59.958;17.726;2023-02-13T01:42:56;-0.60;99.90
10431;DHT22;5262;59.958;17.726;2023-02-13T01:45:27;-0.60;99.90
10431;DHT22;5262;59.958;17.726;2023-02-13T01:47:54;-0.50;99.90
10431;DHT22;5262;59.958;17.726;2023-02-13T01:56:08;-0.20;99.90
10431;DHT22;5262;59.958;17.726;2023-02-13T01:58:38;-0.10;99.90
10431;DHT22;5262;59.958;17.726;2023-02-13T02:01:07;-0.20;99.90
10431;DHT22;5262;59.958;17.726;2023-02-13T02:03:41;-0.20;99.90
10431;DHT22;5262;59.958;17.726;2023-02-13T02:06:10;-0.30;99.90
10431;DHT22;5262;59.958;17.726;2023-02-13T02:08:37;-0.40;99.90
10431;DHT22;5262;59.958;17.726;2023-02-13T02:11:21;-0.40;99.90
10431;DHT22;5262;59.958;17.726;2023-02-13T02:13:49;-0.40;99.90
10431;DHT22;5262;59.958;17.726;2023-02-13T02:16:15;-0.40;99.90
10431;DHT22;5262;59.958;17.726;2023-02-13T02:18:40;-0.20;99.90
10431;DHT22;5262;59.958;17.726;2023-02-13T02:30:13;-0.10;99.90
10431;DHT22;5262;59.958;17.726;2023-02-13T02:36:31;0.00;99.90
10431;DHT22;5262;59.958;17.726;2023-02-13T02:44:43;0.00;99.90
10431;DHT22;5262;59.958;17.726;2023-02-13T02:50:51;0.00;99.90
10431;DHT22;5262;59.958;17.726;2023-02-13T02:56:18;0.10;99.90
10431;DHT22;5262;59.958;17.726;2023-02-13T02:58:46;0.00;99.90
10431;DHT22;5262;59.958;17.726;2023-02-13T03:01:33;0.10;99.90
10431;DHT22;5262;59.958;17.726;2023-02-13T03:04:29;0.10;99.90
10431;DHT22;5262;59.958;17.726;2023-02-13T03:07:16;0.20;99.90
10431;DHT22;5262;59.958;17.726;2023-02-13T03:09:47;0.10;99.90
10431;DHT22;5262;59.958;17.726;2023-02-13T03:12:41;0.10;99.90
10431;DHT22;5262;59.958;17.726;2023-02-13T03:15:28;0.10;99.90
10431;DHT22;5262;59.958;17.726;2023-02-13T03:17:55;0.10;99.90
10431;DHT22;5262;59.958;17.726;2023-02-13T03:21:05;0.00;99.90
10431;DHT22;5262;59.958;17.726;2023-02-13T03:24:00;0.00;99.90
10431;DHT22;5262;59.958;17.726;2023-02-13T03:26:55;0.10;99.90
10431;DHT22;5262;59.958;17.726;2023-02-13T03:29:45;0.10;99.90
10431;DHT22;5262;59.958;17.726;2023-02-13T03:38:05;0.20;99.90
10431;DHT22;5262;59.958;17.726;2023-02-13T03:40:50;0.20;99.90
10431;DHT22;5262;59.958;17.726;2023-02-13T03:44:13;0.20;99.90
10431;DHT22;5262;59.958;17.726;2023-02-13T03:46:45;0.30;99.90
10431;DHT22;5262;59.958;17.726;2023-02-13T03:49:23;0.30;99.90
10431;DHT22;5262;59.958;17.726;2023-02-13T03:52:14;0.30;99.90
10431;DHT22;5262;59.958;17.726;2023-02-13T03:54:46;0.20;99.90
10431;DHT22;5262;59.958;17.726;2023-02-13T03:57:33;0.20;99.90
10431;DHT22;5262;59.958;17.726;2023-02-13T04:00:20;0.30;99.90
10431;DHT22;5262;59.958;17.726;2023-02-13T04:03:10;0.30;99.90
10431;DHT22;5262;59.958;17.726;2023-02-13T04:05:48;0.30;99.90
10431;DHT22;5262;59.958;17.726;2023-02-13T04:08:15;0.30;99.90
10431;DHT22;5262;59.958;17.726;2023-02-13T04:10:50;0.30;99.90
10431;DHT22;5262;59.958;17.726;2023-02-13T04:13:32;0.20;99.90
10431;DHT22;5262;59.958;17.726;2023-02-13T04:16:18;0.20;99.90
10431;DHT22;5262;59.958;17.726;2023-02-13T04:18:46;0.20;99.90
10431;DHT22;5262;59.958;17.726;2023-02-13T04:21:13;0.20;99.90
10431;DHT22;5262;59.958;17.726;2023-02-13T04:23:38;0.10;99.90
10431;DHT22;5262;59.958;17.726;2023-02-13T04:26:07;0.10;99.90
10431;DHT22;5262;59.958;17.726;2023-02-13T04:28:36;0.00;99.90
10431;DHT22;5262;59.958;17.726;2023-02-13T04:31:02;0.10;99.90
10431;DHT22;5262;59.958;17.726;2023-02-13T04:33:27;0.00;99.90
10431;DHT22;5262;59.958;17.726;2023-02-13T04:35:53;0.00;99.90
10431;DHT22;5262;59.958;17.726;2023-02-13T04:38:18;0.00;99.90
10431;DHT22;5262;59.958;17.726;2023-02-13T04:40:44;0.00;99.90
10431;DHT22;5262;59.958;17.726;2023-02-13T04:43:10;0.10;99.90
10431;DHT22;5262;59.958;17.726;2023-02-13T04:45:36;0.10;99.90
10431;DHT22;5262;59.958;17.726;2023-02-13T04:48:01;0.10;99.90
10431;DHT22;5262;59.958;17.726;2023-02-13T04:50:27;0.00;99.90
10431;DHT22;5262;59.958;17.726;2023-02-13T04:52:56;-0.10;99.90
10431;DHT22;5262;59.958;17.726;2023-02-13T04:55:24;-0.20;99.90
10431;DHT22;5262;59.958;17.726;2023-02-13T04:57:53;-0.20;99.90
10431;DHT22;5262;59.958;17.726;2023-02-13T05:00:21;-0.20;99.90
10431;DHT22;5262;59.958;17.726;2023-02-13T05:02:46;-0.20;99.90
10431;DHT22;5262;59.958;17.726;2023-02-13T05:05:12;-0.20;99.90
10431;DHT22;5262;59.958;17.726;2023-02-13T05:07:38;-0.20;99.90
10431;DHT22;5262;59.958;17.726;2023-02-13T05:10:04;-0.10;99.90
10431;DHT22;5262;59.958;17.726;2023-02-13T05:12:29;-0.10;99.90
10431;DHT22;5262;59.958;17.726;2023-02-13T05:14:55;0.00;99.90
10431;DHT22;5262;59.958;17.726;2023-02-13T05:17:21;0.00;99.90
10431;DHT22;5262;59.958;17.726;2023-02-13T05:19:46;0.00;99.90
10431;DHT22;5262;59.958;17.726;2023-02-13T05:22:12;0.00;99.90
10431;DHT22;5262;59.958;17.726;2023-02-13T05:24:56;0.00;99.90
10431;DHT22;5262;59.958;17.726;2023-02-13T05:27:22;0.00;99.90
10431;DHT22;5262;59.958;17.726;2023-02-13T05:29:47;0.00;99.90
10431;DHT22;5262;59.958;17.726;2023-02-13T05:32:13;0.00;99.90
10431;DHT22;5262;59.958;17.726;2023-02-13T05:34:39;0.00;99.90
10431;DHT22;5262;59.958;17.726;2023-02-13T05:37:04;0.00;99.90
10431;DHT22;5262;59.958;17.726;2023-02-13T05:39:30;0.00;99.90
10431;DHT22;5262;59.958;17.726;2023-02-13T05:41:55;-0.10;99.90
10431;DHT22;5262;59.958;17.726;2023-02-13T05:44:21;-0.10;99.90
10431;DHT22;5262;59.958;17.726;2023-02-13T05:46:47;-0.20;99.90
10431;DHT22;5262;59.958;17.726;2023-02-13T05:49:14;-0.30;99.90
10431;DHT22;5262;59.958;17.726;2023-02-13T05:51:41;-0.30;99.90
10431;DHT22;5262;59.958;17.726;2023-02-13T05:54:07;-0.30;99.90
10431;DHT22;5262;59.958;17.726;2023-02-13T05:56:32;-0.30;99.90
10431;DHT22;5262;59.958;17.726;2023-02-13T05:58:58;-0.30;99.90
10431;DHT22;5262;59.958;17.726;2023-02-13T06:01:25;-0.20;99.90
10431;DHT22;5262;59.958;17.726;2023-02-13T06:03:50;-0.20;99.90
10431;DHT22;5262;59.958;17.726;2023-02-13T06:06:16;-0.20;99.90
10431;DHT22;5262;59.958;17.726;2023-02-13T06:08:42;-0.20;99.90
10431;DHT22;5262;59.958;17.726;2023-02-13T06:11:10;-0.20;99.90
10431;DHT22;5262;59.958;17.726;2023-02-13T06:13:35;-0.20;99.90
10431;DHT22;5262;59.958;17.726;2023-02-13T06:16:08;-0.20;99.90
10431;DHT22;5262;59.958;17.726;2023-02-13T06:18:34;-0.30;99.90
10431;DHT22;5262;59.958;17.726;2023-02-13T06:21:00;-0.30;99.90
10431;DHT22;5262;59.958;17.726;2023-02-13T06:23:25;-0.30;99.90
10431;DHT22;5262;59.958;17.726;2023-02-13T06:25:51;-0.30;99.90
10431;DHT22;5262;59.958;17.726;2023-02-13T06:28:17;-0.30;99.90
10431;DHT22;5262;59.958;17.726;2023-02-13T06:30:42;-0.40;99.90
10431;DHT22;5262;59.958;17.726;2023-02-13T06:33:08;-0.50;99.90
10431;DHT22;5262;59.958;17.726;2023-02-13T06:35:33;-0.50;99.90
10431;DHT22;5262;59.958;17.726;2023-02-13T06:37:59;-0.60;99.90
10431;DHT22;5262;59.958;17.726;2023-02-13T06:40:25;-0.60;99.90
10431;DHT22;5262;59.958;17.726;2023-02-13T06:42:50;-0.60;99.90
10431;DHT22;5262;59.958;17.726;2023-02-13T06:45:16;-0.60;99.90
10431;DHT22;5262;59.958;17.726;2023-02-13T06:47:43;-0.60;99.90
10431;DHT22;5262;59.958;17.726;2023-02-13T06:50:10;-0.50;99.90
10431;DHT22;5262;59.958;17.726;2023-02-13T06:52:36;-0.50;99.90
10431;DHT22;5262;59.958;17.726;2023-02-13T06:55:02;-0.50;99.90
10431;DHT22;5262;59.958;17.726;2023-02-13T06:57:28;-0.50;99.90
10431;DHT22;5262;59.958;17.726;2023-02-13T06:59:58;-0.50;99.90
10431;DHT22;5262;59.958;17.726;2023-02-13T07:02:24;-0.50;99.90
10431;DHT22;5262;59.958;17.726;2023-02-13T07:04:49;-0.50;99.90
10431;DHT22;5262;59.958;17.726;2023-02-13T07:07:15;-0.40;99.90
10431;DHT22;5262;59.958;17.726;2023-02-13T07:09:41;-0.40;99.90
10431;DHT22;5262;59.958;17.726;2023-02-13T07:12:06;-0.40;99.90
10431;DHT22;5262;59.958;17.726;2023-02-13T07:14:32;-0.40;99.90
10431;DHT22;5262;59.958;17.726;2023-02-13T07:16:58;-0.30;99.90
10431;DHT22;5262;59.958;17.726;2023-02-13T07:19:23;-0.30;99.90
10431;DHT22;5262;59.958;17.726;2023-02-13T07:21:49;-0.30;99.90
10431;DHT22;5262;59.958;17.726;2023-02-13T07:24:15;-0.30;99.90
10431;DHT22;5262;59.958;17.726;2023-02-13T07:26:40;-0.20;99.90
10431;DHT22;5262;59.958;17.726;2023-02-13T07:29:06;-0.20;99.90
10431;DHT22;5262;59.958;17.726;2023-02-13T07:31:33;-0.20;99.90
10431;DHT22;5262;59.958;17.726;2023-02-13T07:33:59;-0.10;99.90
10431;DHT22;5262;59.958;17.726;2023-02-13T07:36:25;-0.10;99.90
10431;DHT22;5262;59.958;17.726;2023-02-13T07:38:51;-0.10;99.90
10431;DHT22;5262;59.958;17.726;2023-02-13T07:41:16;0.00;99.90
10431;DHT22;5262;59.958;17.726;2023-02-13T07:43:42;0.10;99.90
10431;DHT22;5262;59.958;17.726;2023-02-13T07:46:08;0.10;99.90
10431;DHT22;5262;59.958;17.726;2023-02-13T07:48:34;0.20;99.90
10431;DHT22;5262;59.958;17.726;2023-02-13T07:51:01;0.30;99.90
10431;DHT22;5262;59.958;17.726;2023-02-13T07:53:27;0.30;99.90
10431;DHT22;5262;59.958;17.726;2023-02-13T07:55:52;0.30;99.90
10431;DHT22;5262;59.958;17.726;2023-02-13T07:58:18;0.30;99.90
10431;DHT22;5262;59.958;17.726;2023-02-13T08:00:43;0.40;99.90
10431;DHT22;5262;59.958;17.726;2023-02-13T08:03:09;0.50;99.90
10431;DHT22;5262;59.958;17.726;2023-02-13T08:05:36;0.50;99.90
10431;DHT22;5262;59.958;17.726;2023-02-13T08:08:02;0.60;99.90
10431;DHT22;5262;59.958;17.726;2023-02-13T08:10:27;0.70;99.90
10431;DHT22;5262;59.958;17.726;2023-02-13T08:13:13;0.80;99.90
10431;DHT22;5262;59.958;17.726;2023-02-13T08:15:39;0.90;99.90
10431;DHT22;5262;59.958;17.726;2023-02-13T08:18:05;1.10;99.90
10431;DHT22;5262;59.958;17.726;2023-02-13T08:20:30;1.20;99.90
10431;DHT22;5262;59.958;17.726;2023-02-13T08:23:08;1.30;99.90
10431;DHT22;5262;59.958;17.726;2023-02-13T08:25:34;1.40;99.90
10431;DHT22;5262;59.958;17.726;2023-02-13T08:28:01;1.60;99.90
10431;DHT22;5262;59.958;17.726;2023-02-13T08:30:27;1.70;99.90
10431;DHT22;5262;59.958;17.726;2023-02-13T08:32:53;1.80;99.90
10431;DHT22;5262;59.958;17.726;2023-02-13T08:35:19;1.80;99.90
10431;DHT22;5262;59.958;17.726;2023-02-13T08:37:44;1.90;99.90
10431;DHT22;5262;59.958;17.726;2023-02-13T08:40:10;2.00;99.90
10431;DHT22;5262;59.958;17.726;2023-02-13T08:42:36;2.20;99.90
10431;DHT22;5262;59.958;17.726;2023-02-13T08:45:03;2.40;99.90
10431;DHT22;5262;59.958;17.726;2023-02-13T08:47:28;2.60;99.90
10431;DHT22;5262;59.958;17.726;2023-02-13T08:49:54;2.80;99.90
10431;DHT22;5262;59.958;17.726;2023-02-13T08:52:19;3.00;99.90
10431;DHT22;5262;59.958;17.726;2023-02-13T08:54:45;3.20;99.90
10431;DHT22;5262;59.958;17.726;2023-02-13T08:57:11;3.30;99.90
10431;DHT22;5262;59.958;17.726;2023-02-13T08:59:36;3.30;99.90
10431;DHT22;5262;59.958;17.726;2023-02-13T09:02:02;3.40;99.90
10431;DHT22;5262;59.958;17.726;2023-02-13T09:04:27;3.60;99.90
10431;DHT22;5262;59.958;17.726;2023-02-13T09:06:53;3.70;99.90
10431;DHT22;5262;59.958;17.726;2023-02-13T09:09:19;3.90;99.90
10431;DHT22;5262;59.958;17.726;2023-02-13T09:11:45;4.00;99.90
10431;DHT22;5262;59.958;17.726;2023-02-13T09:14:10;4.00;99.90
10431;DHT22;5262;59.958;17.726;2023-02-13T09:16:36;4.00;99.90
10431;DHT22;5262;59.958;17.726;2023-02-13T09:19:02;4.00;99.90
10431;DHT22;5262;59.958;17.726;2023-02-13T09:21:28;4.20;99.90
10431;DHT22;5262;59.958;17.726;2023-02-13T09:23:56;4.20;99.90
10431;DHT22;5262;59.958;17.726;2023-02-13T09:26:21;4.30;99.90
10431;DHT22;5262;59.958;17.726;2023-02-13T09:28:47;4.40;99.90
10431;DHT22;5262;59.958;17.726;2023-02-13T09:31:15;4.40;99.90
10431;DHT22;5262;59.958;17.726;2023-02-13T09:33:43;4.50;99.90
10431;DHT22;5262;59.958;17.726;2023-02-13T09:36:11;4.50;99.90
10431;DHT22;5262;59.958;17.726;2023-02-13T09:38:39;4.60;99.90
10431;DHT22;5262;59.958;17.726;2023-02-13T09:41:33;4.70;99.90
10431;DHT22;5262;59.958;17.726;2023-02-13T09:49:59;4.90;99.90
10431;DHT22;5262;59.958;17.726;2023-02-13T09:52:33;5.00;99.90
10431;DHT22;5262;59.958;17.726;2023-02-13T09:55:16;4.90;99.90
10431;DHT22;5262;59.958;17.726;2023-02-13T09:58:07;4.90;99.90
10431;DHT22;5262;59.958;17.726;2023-02-13T10:00:47;4.90;99.90
10431;DHT22;5262;59.958;17.726;2023-02-13T10:03:50;5.00;99.90
10431;DHT22;5262;59.958;17.726;2023-02-13T10:06:28;5.10;99.90
10431;DHT22;5262;59.958;17.726;2023-02-13T10:14:49;5.10;99.90
10431;DHT22;5262;59.958;17.726;2023-02-13T10:17:40;5.10;99.90
10431;DHT22;5262;59.958;17.726;2023-02-13T10:28:31;5.70;99.90
10431;DHT22;5262;59.958;17.726;2023-02-13T10:31:23;5.90;99.90
10431;DHT22;5262;59.958;17.726;2023-02-13T10:33:51;6.10;99.90
10431;DHT22;5262;59.958;17.726;2023-02-13T10:36:21;6.20;99.90
10431;DHT22;5262;59.958;17.726;2023-02-13T10:38:55;6.30;99.90
10431;DHT22;5262;59.958;17.726;2023-02-13T10:49:49;6.70;99.90
10431;DHT22;5262;59.958;17.726;2023-02-13T10:52:38;7.00;99.90
10431;DHT22;5262;59.958;17.726;2023-02-13T11:03:21;8.20;99.90
10431;DHT22;5262;59.958;17.726;2023-02-13T11:05:48;8.20;99.90
10431;DHT22;5262;59.958;17.726;2023-02-13T11:08:21;8.20;99.90
10431;DHT22;5262;59.958;17.726;2023-02-13T11:10:47;8.50;99.90
10431;DHT22;5262;59.958;17.726;2023-02-13T11:13:16;8.60;99.90
10431;DHT22;5262;59.958;17.726;2023-02-13T11:15:42;8.40;99.90
10431;DHT22;5262;59.958;17.726;2023-02-13T11:18:21;8.40;99.90
10431;DHT22;5262;59.958;17.726;2023-02-13T11:20:58;8.30;99.90
10431;DHT22;5262;59.958;17.726;2023-02-13T11:26:01;8.20;99.90
10431;DHT22;5262;59.958;17.726;2023-02-13T11:28:30;8.10;99.90
10431;DHT22;5262;59.958;17.726;2023-02-13T11:33:45;8.00;99.90
10431;DHT22;5262;59.958;17.726;2023-02-13T11:36:14;8.20;99.90
10431;DHT22;5262;59.958;17.726;2023-02-13T11:38:40;8.10;99.90
10431;DHT22;5262;59.958;17.726;2023-02-13T11:41:09;7.80;99.90
10431;DHT22;5262;59.958;17.726;2023-02-13T11:43:46;7.70;99.90
10431;DHT22;5262;59.958;17.726;2023-02-13T11:46:22;7.50;99.90
10431;DHT22;5262;59.958;17.726;2023-02-13T11:49:30;7.40;99.90
10431;DHT22;5262;59.958;17.726;2023-02-13T11:51:56;7.40;99.90
10431;DHT22;5262;59.958;17.726;2023-02-13T11:54:35;7.40;99.90
10431;DHT22;5262;59.958;17.726;2023-02-13T11:59:46;7.30;99.90
10431;DHT22;5262;59.958;17.726;2023-02-13T12:02:42;7.30;99.90
10431;DHT22;5262;59.958;17.726;2023-02-13T12:05:25;7.30;99.90
10431;DHT22;5262;59.958;17.726;2023-02-13T12:07:51;7.40;99.90
10431;DHT22;5262;59.958;17.726;2023-02-13T12:10:24;7.20;99.90
10431;DHT22;5262;59.958;17.726;2023-02-13T12:13:11;7.00;99.90
10431;DHT22;5262;59.958;17.726;2023-02-13T12:15:37;7.00;99.90
10431;DHT22;5262;59.958;17.726;2023-02-13T12:18:25;7.00;99.90
10431;DHT22;5262;59.958;17.726;2023-02-13T12:23:45;7.10;99.90
10431;DHT22;5262;59.958;17.726;2023-02-13T12:31:25;7.10;99.90
10431;DHT22;5262;59.958;17.726;2023-02-13T12:47:20;6.90;99.90
10431;DHT22;5262;59.958;17.726;2023-02-13T12:49:59;6.90;99.90
10431;DHT22;5262;59.958;17.726;2023-02-13T12:58:48;6.90;99.90
10431;DHT22;5262;59.958;17.726;2023-02-13T13:01:25;6.80;99.90
10431;DHT22;5262;59.958;17.726;2023-02-13T13:07:23;6.80;99.90
10431;DHT22;5262;59.958;17.726;2023-02-13T13:12:52;6.80;99.90
10431;DHT22;5262;59.958;17.726;2023-02-13T13:23:21;6.80;99.90
10431;DHT22;5262;59.958;17.726;2023-02-13T13:28:57;6.60;99.90
10431;DHT22;5262;59.958;17.726;2023-02-13T13:31:25;6.50;99.90
10431;DHT22;5262;59.958;17.726;2023-02-13T13:33:57;6.50;99.90
10431;DHT22;5262;59.958;17.726;2023-02-13T13:36:43;6.50;99.90
10431;DHT22;5262;59.958;17.726;2023-02-13T13:39:32;6.40;99.90
10431;DHT22;5262;59.958;17.726;2023-02-13T13:44:49;6.40;99.90
10431;DHT22;5262;59.958;17.726;2023-02-13T13:47:40;6.30;99.90
10431;DHT22;5262;59.958;17.726;2023-02-13T13:50:28;6.40;99.90
10431;DHT22;5262;59.958;17.726;2023-02-13T13:53:17;6.60;99.90
10431;DHT22;5262;59.958;17.726;2023-02-13T13:58:33;6.80;99.90
10431;DHT22;5262;59.958;17.726;2023-02-13T14:03:57;7.00;99.90
10431;DHT22;5262;59.958;17.726;2023-02-13T14:09:38;7.40;99.90
10431;DHT22;5262;59.958;17.726;2023-02-13T14:14:49;7.70;99.90
10431;DHT22;5262;59.958;17.726;2023-02-13T14:17:16;7.80;99.90
10431;DHT22;5262;59.958;17.726;2023-02-13T14:20:01;7.80;99.90
10431;DHT22;5262;59.958;17.726;2023-02-13T14:22:34;7.90;99.90
10431;DHT22;5262;59.958;17.726;2023-02-13T14:25:19;7.90;99.90
10431;DHT22;5262;59.958;17.726;2023-02-13T14:27:58;7.60;99.90
10431;DHT22;5262;59.958;17.726;2023-02-13T14:30:36;7.10;99.90
10431;DHT22;5262;59.958;17.726;2023-02-13T14:33:06;6.90;99.90
10431;DHT22;5262;59.958;17.726;2023-02-13T14:35:35;6.70;99.90
10431;DHT22;5262;59.958;17.726;2023-02-13T14:38:04;6.50;99.90
10431;DHT22;5262;59.958;17.726;2023-02-13T14:40:51;6.30;99.90
10431;DHT22;5262;59.958;17.726;2023-02-13T14:43:32;6.10;99.90
10431;DHT22;5262;59.958;17.726;2023-02-13T14:46:21;6.00;99.90
10431;DHT22;5262;59.958;17.726;2023-02-13T14:49:01;5.70;99.90
10431;DHT22;5262;59.958;17.726;2023-02-13T14:51:38;5.60;99.90
10431;DHT22;5262;59.958;17.726;2023-02-13T14:56:58;5.20;99.90
10431;DHT22;5262;59.958;17.726;2023-02-13T14:59:28;5.30;99.90
10431;DHT22;5262;59.958;17.726;2023-02-13T15:07:15;4.90;99.90
10431;DHT22;5262;59.958;17.726;2023-02-13T15:09:49;4.80;99.90
10431;DHT22;5262;59.958;17.726;2023-02-13T15:12:26;4.80;99.90
10431;DHT22;5262;59.958;17.726;2023-02-13T15:14:52;4.70;99.90
10431;DHT22;5262;59.958;17.726;2023-02-13T15:17:22;4.60;99.90
10431;DHT22;5262;59.958;17.726;2023-02-13T15:19:53;4.60;99.90
10431;DHT22;5262;59.958;17.726;2023-02-13T15:22:32;4.60;99.90
10431;DHT22;5262;59.958;17.726;2023-02-13T15:25:00;4.80;99.90
10431;DHT22;5262;59.958;17.726;2023-02-13T15:27:31;4.90;99.90
10431;DHT22;5262;59.958;17.726;2023-02-13T15:30:03;4.90;99.90
10431;DHT22;5262;59.958;17.726;2023-02-13T15:32:32;4.90;99.90
10431;DHT22;5262;59.958;17.726;2023-02-13T15:34:59;4.90;99.90
10431;DHT22;5262;59.958;17.726;2023-02-13T15:37:28;4.80;99.90
10431;DHT22;5262;59.958;17.726;2023-02-13T15:39:54;4.90;99.90
10431;DHT22;5262;59.958;17.726;2023-02-13T15:42:20;4.80;99.90
10431;DHT22;5262;59.958;17.726;2023-02-13T15:44:51;4.90;99.90
10431;DHT22;5262;59.958;17.726;2023-02-13T15:47:29;4.90;99.90
10431;DHT22;5262;59.958;17.726;2023-02-13T15:49:55;4.90;99.90
10431;DHT22;5262;59.958;17.726;2023-02-13T15:52:35;5.10;99.90
10431;DHT22;5262;59.958;17.726;2023-02-13T15:55:02;5.10;99.90
10431;DHT22;5262;59.958;17.726;2023-02-13T15:57:28;5.10;99.90
10431;DHT22;5262;59.958;17.726;2023-02-13T15:59:55;5.20;99.90
10431;DHT22;5262;59.958;17.726;2023-02-13T16:02:24;5.20;99.90
10431;DHT22;5262;59.958;17.726;2023-02-13T16:04:53;5.30;99.90
10431;DHT22;5262;59.958;17.726;2023-02-13T16:07:20;5.40;99.90
10431;DHT22;5262;59.958;17.726;2023-02-13T16:09:45;5.30;99.90
10431;DHT22;5262;59.958;17.726;2023-02-13T16:14:54;5.40;99.90
10431;DHT22;5262;59.958;17.726;2023-02-13T16:17:29;5.40;99.90
10431;DHT22;5262;59.958;17.726;2023-02-13T16:20:02;5.30;99.90
10431;DHT22;5262;59.958;17.726;2023-02-13T16:22:46;5.30;99.90
10431;DHT22;5262;59.958;17.726;2023-02-13T16:27:56;5.50;99.90
10431;DHT22;5262;59.958;17.726;2023-02-13T16:30:40;5.50;99.90
10431;DHT22;5262;59.958;17.726;2023-02-13T16:35:43;5.50;99.90
10431;DHT22;5262;59.958;17.726;2023-02-13T16:40:53;5.40;99.90
10431;DHT22;5262;59.958;17.726;2023-02-13T16:51:09;5.40;99.90
10431;DHT22;5262;59.958;17.726;2023-02-13T16:53:35;5.30;99.90
10431;DHT22;5262;59.958;17.726;2023-02-13T16:56:05;5.30;99.90
10431;DHT22;5262;59.958;17.726;2023-02-13T16:58:31;5.20;99.90
10431;DHT22;5262;59.958;17.726;2023-02-13T17:00:57;5.10;99.90
10431;DHT22;5262;59.958;17.726;2023-02-13T17:03:23;5.20;99.90
10431;DHT22;5262;59.958;17.726;2023-02-13T17:05:49;5.20;99.90
10431;DHT22;5262;59.958;17.726;2023-02-13T17:08:14;5.10;99.90
10431;DHT22;5262;59.958;17.726;2023-02-13T17:10:40;5.10;99.90
10431;DHT22;5262;59.958;17.726;2023-02-13T17:15:43;4.90;99.90
10431;DHT22;5262;59.958;17.726;2023-02-13T17:18:09;5.00;99.90
10431;DHT22;5262;59.958;17.726;2023-02-13T17:20:35;5.00;99.90
10431;DHT22;5262;59.958;17.726;2023-02-13T17:23:03;4.90;99.90
10431;DHT22;5262;59.958;17.726;2023-02-13T17:25:32;4.90;99.90
10431;DHT22;5262;59.958;17.726;2023-02-13T17:28:22;4.80;99.90
10431;DHT22;5262;59.958;17.726;2023-02-13T17:30:47;4.70;99.90
10431;DHT22;5262;59.958;17.726;2023-02-13T17:33:24;4.80;99.90
10431;DHT22;5262;59.958;17.726;2023-02-13T17:35:51;4.90;99.90
10431;DHT22;5262;59.958;17.726;2023-02-13T17:38:17;4.90;99.90
10431;DHT22;5262;59.958;17.726;2023-02-13T17:40:44;4.80;99.90
10431;DHT22;5262;59.958;17.726;2023-02-13T17:43:14;4.80;99.90
10431;DHT22;5262;59.958;17.726;2023-02-13T17:45:41;4.90;99.90
10431;DHT22;5262;59.958;17.726;2023-02-13T17:48:06;4.80;99.90
10431;DHT22;5262;59.958;17.726;2023-02-13T17:50:33;4.80;99.90
10431;DHT22;5262;59.958;17.726;2023-02-13T17:53:04;4.80;99.90
10431;DHT22;5262;59.958;17.726;2023-02-13T17:55:32;4.80;99.90
10431;DHT22;5262;59.958;17.726;2023-02-13T17:57:58;4.70;99.90
10431;DHT22;5262;59.958;17.726;2023-02-13T18:00:30;4.70;99.90
10431;DHT22;5262;59.958;17.726;2023-02-13T18:02:57;4.50;99.90
10431;DHT22;5262;59.958;17.726;2023-02-13T18:05:24;4.40;99.90
10431;DHT22;5262;59.958;17.726;2023-02-13T18:07:50;4.50;99.90
10431;DHT22;5262;59.958;17.726;2023-02-13T18:10:18;4.50;99.90
10431;DHT22;5262;59.958;17.726;2023-02-13T18:12:45;4.40;99.90
10431;DHT22;5262;59.958;17.726;2023-02-13T18:15:12;4.40;99.90
10431;DHT22;5262;59.958;17.726;2023-02-13T18:17:38;4.40;99.90
10431;DHT22;5262;59.958;17.726;2023-02-13T18:20:06;4.40;99.90
10431;DHT22;5262;59.958;17.726;2023-02-13T18:22:31;4.40;99.90
10431;DHT22;5262;59.958;17.726;2023-02-13T18:24:57;4.40;99.90
10431;DHT22;5262;59.958;17.726;2023-02-13T18:27:24;4.40;99.90
10431;DHT22;5262;59.958;17.726;2023-02-13T18:29:52;4.40;99.90
10431;DHT22;5262;59.958;17.726;2023-02-13T18:32:17;4.20;99.90
10431;DHT22;5262;59.958;17.726;2023-02-13T18:34:43;4.20;99.90
10431;DHT22;5262;59.958;17.726;2023-02-13T18:37:11;4.10;99.90
10431;DHT22;5262;59.958;17.726;2023-02-13T18:39:37;4.00;99.90
10431;DHT22;5262;59.958;17.726;2023-02-13T18:42:03;4.00;99.90
10431;DHT22;5262;59.958;17.726;2023-02-13T18:44:29;4.00;99.90
10431;DHT22;5262;59.958;17.726;2023-02-13T18:46:55;3.90;99.90
10431;DHT22;5262;59.958;17.726;2023-02-13T18:49:20;3.80;99.90
10431;DHT22;5262;59.958;17.726;2023-02-13T18:51:46;3.90;99.90